sensor_id;sensor_type;location;lat;lon;timestamp;temperature;humidity
15156;DHT22;7678;50.058;8.306;2023-03-07T00:01:05;2.80;99.90
15156;DHT22;7678;50.058;8.306;2023-03-07T00:03:34;2.80;99.90
15156;DHT22;7678;50.058;8.306;2023-03-07T00:06:04;2.80;99.90
15156;DHT22;7678;50.058;8.306;2023-03-07T00:08:34;2.80;99.90
15156;DHT22;7678;50.058;8.306;2023-03-07T00:11:04;2.80;99.90
15156;DHT22;7678;50.058;8.306;2023-03-07T00:13:33;2.80;99.90
15156;DHT22;7678;50.058;8.306;2023-03-07T00:16:03;2.90;99.90
15156;DHT22;7678;50.058;8.306;2023-03-07T00:18:32;2.90;99.90
15156;DHT22;7678;50.058;8.306;2023-03-07T00:21:04;2.80;99.90
15156;DHT22;7678;50.058;8.306;2023-03-07T00:23:36;2.80;99.90
15156;DHT22;7678;50.058;8.306;2023-03-07T00:26:05;2.80;99.90
15156;DHT22;7678;50.058;8.306;2023-03-07T00:28:34;2.80;99.90
15156;DHT22;7678;50.058;8.306;2023-03-07T00:31:05;2.90;99.90
15156;DHT22;7678;50.058;8.306;2023-03-07T00:33:34;2.90;99.90
15156;DHT22;7678;50.058;8.306;2023-03-07T00:36:04;2.80;99.90
15156;DHT22;7678;50.058;8.306;2023-03-07T00:38:34;2.80;99.90
15156;DHT22;7678;50.058;8.306;2023-03-07T00:41:05;2.90;99.90
15156;DHT22;7678;50.058;8.306;2023-03-07T00:43:34;2.90;99.90
15156;DHT22;7678;50.058;8.306;2023-03-07T00:46:03;2.80;99.90
15156;DHT22;7678;50.058;8.306;2023-03-07T00:48:32;3.00;99.90
15156;DHT22;7678;50.058;8.306;2023-03-07T00:51:01;3.00;99.90
15156;DHT22;7678;50.058;8.306;2023-03-07T00:53:29;2.90;99.90
15156;DHT22;7678;50.058;8.306;2023-03-07T00:56:01;2.90;99.90
15156;DHT22;7678;50.058;8.306;2023-03-07T00:58:31;2.90;99.90
15156;DHT22;7678;50.058;8.306;2023-03-07T01:01:00;2.90;99.90
15156;DHT22;7678;50.058;8.306;2023-03-07T01:03:28;2.90;99.90
15156;DHT22;7678;50.058;8.306;2023-03-07T01:05:56;2.90;99.90
15156;DHT22;7678;50.058;8.306;2023-03-07T01:08:25;2.90;99.90
15156;DHT22;7678;50.058;8.306;2023-03-07T01:10:58;2.80;99.90
15156;DHT22;7678;50.058;8.306;2023-03-07T01:13:27;2.90;99.90
15156;DHT22;7678;50.058;8.306;2023-03-07T01:16:04;2.90;99.90
15156;DHT22;7678;50.058;8.306;2023-03-07T01:18:32;2.90;99.90
15156;DHT22;7678;50.058;8.306;2023-03-07T01:21:00;2.90;99.90
15156;DHT22;7678;50.058;8.306;2023-03-07T01:23:28;2.90;99.90
15156;DHT22;7678;50.058;8.306;2023-03-07T01:25:56;2.90;99.90
15156;DHT22;7678;50.058;8.306;2023-03-07T01:28:26;2.90;99.90
15156;DHT22;7678;50.058;8.306;2023-03-07T01:30:57;2.90;99.90
15156;DHT22;7678;50.058;8.306;2023-03-07T01:33:26;3.00;99.90
15156;DHT22;7678;50.058;8.306;2023-03-07T01:35:54;3.00;99.90
15156;DHT22;7678;50.058;8.306;2023-03-07T01:38:22;3.00;99.90
15156;DHT22;7678;50.058;8.306;2023-03-07T01:40:52;3.00;99.90
15156;DHT22;7678;50.058;8.306;2023-03-07T01:43:26;2.90;99.90
15156;DHT22;7678;50.058;8.306;2023-03-07T01:46:23;2.90;99.90
15156;DHT22;7678;50.058;8.306;2023-03-07T01:48:55;2.90;99.90
15156;DHT22;7678;50.058;8.306;2023-03-07T01:51:25;2.90;99.90
15156;DHT22;7678;50.058;8.306;2023-03-07T01:53:54;3.00;99.90
15156;DHT22;7678;50.058;8.306;2023-03-07T01:56:24;3.00;99.90
15156;DHT22;7678;50.058;8.306;2023-03-07T01:58:56;3.00;99.90
15156;DHT22;7678;50.058;8.306;2023-03-07T02:01:25;2.90;99.90
15156;DHT22;7678;50.058;8.306;2023-03-07T02:03:57;2.90;99.90
15156;DHT22;7678;50.058;8.306;2023-03-07T02:06:27;2.90;99.90
15156;DHT22;7678;50.058;8.306;2023-03-07T02:09:01;2.90;99.90
15156;DHT22;7678;50.058;8.306;2023-03-07T02:11:31;2.90;99.90
15156;DHT22;7678;50.058;8.306;2023-03-07T02:14:01;2.90;99.90
15156;DHT22;7678;50.058;8.306;2023-03-07T02:16:30;2.90;99.90
15156;DHT22;7678;50.058;8.306;2023-03-07T02:18:58;2.90;99.90
15156;DHT22;7678;50.058;8.306;2023-03-07T02:21:34;2.90;99.90
15156;DHT22;7678;50.058;8.306;2023-03-07T02:24:08;2.90;99.90
15156;DHT22;7678;50.058;8.306;2023-03-07T02:26:42;2.90;99.90
15156;DHT22;7678;50.058;8.306;2023-03-07T02:29:11;2.90;99.90
15156;DHT22;7678;50.058;8.306;2023-03-07T02:31:40;2.90;99.90
15156;DHT22;7678;50.058;8.306;2023-03-07T02:34:17;2.90;99.90
15156;DHT22;7678;50.058;8.306;2023-03-07T02:36:46;2.90;99.90
15156;DHT22;7678;50.058;8.306;2023-03-07T02:39:16;2.90;99.90
15156;DHT22;7678;50.058;8.306;2023-03-07T02:41:46;2.90;99.90
15156;DHT22;7678;50.058;8.306;2023-03-07T02:44:15;2.90;99.90
15156;DHT22;7678;50.058;8.306;2023-03-07T02:46:43;2.90;99.90
15156;DHT22;7678;50.058;8.306;2023-03-07T02:49:11;2.90;99.90
15156;DHT22;7678;50.058;8.306;2023-03-07T02:51:39;3.00;99.90
15156;DHT22;7678;50.058;8.306;2023-03-07T02:54:07;3.00;99.90
15156;DHT22;7678;50.058;8.306;2023-03-07T02:56:35;3.00;99.90
15156;DHT22;7678;50.058;8.306;2023-03-07T02:59:05;3.00;99.90
15156;DHT22;7678;50.058;8.306;2023-03-07T03:01:33;2.90;99.90
15156;DHT22;7678;50.058;8.306;2023-03-07T03:04:01;3.00;99.90
15156;DHT22;7678;50.058;8.306;2023-03-07T03:06:29;3.00;99.90
15156;DHT22;7678;50.058;8.306;2023-03-07T03:08:57;3.00;99.90
15156;DHT22;7678;50.058;8.306;2023-03-07T03:11:25;3.00;99.90
15156;DHT22;7678;50.058;8.306;2023-03-07T03:13:53;3.00;99.90
15156;DHT22;7678;50.058;8.306;2023-03-07T03:16:23;3.00;99.90
15156;DHT22;7678;50.058;8.306;2023-03-07T03:18:51;3.00;99.90
15156;DHT22;7678;50.058;8.306;2023-03-07T03:21:19;3.00;99.90
15156;DHT22;7678;50.058;8.306;2023-03-07T03:23:47;3.00;99.90
15156;DHT22;7678;50.058;8.306;2023-03-07T03:26:15;3.00;99.90
15156;DHT22;7678;50.058;8.306;2023-03-07T03:28:43;3.00;99.90
15156;DHT22;7678;50.058;8.306;2023-03-07T03:31:12;3.10;99.90
15156;DHT22;7678;50.058;8.306;2023-03-07T03:33:42;3.10;99.90
15156;DHT22;7678;50.058;8.306;2023-03-07T03:36:13;3.10;99.90
15156;DHT22;7678;50.058;8.306;2023-03-07T03:38:41;3.10;99.90
15156;DHT22;7678;50.058;8.306;2023-03-07T03:41:11;3.10;99.90
15156;DHT22;7678;50.058;8.306;2023-03-07T03:43:41;3.10;99.90
15156;DHT22;7678;50.058;8.306;2023-03-07T03:46:09;3.10;99.90
15156;DHT22;7678;50.058;8.306;2023-03-07T03:48:38;3.20;99.90
15156;DHT22;7678;50.058;8.306;2023-03-07T03:51:10;3.20;99.90
15156;DHT22;7678;50.058;8.306;2023-03-07T03:53:40;3.10;99.90
15156;DHT22;7678;50.058;8.306;2023-03-07T03:56:09;3.10;99.90
15156;DHT22;7678;50.058;8.306;2023-03-07T03:58:38;3.10;99.90
15156;DHT22;7678;50.058;8.306;2023-03-07T04:01:09;3.20;99.90
15156;DHT22;7678;50.058;8.306;2023-03-07T04:03:39;3.10;99.90
15156;DHT22;7678;50.058;8.306;2023-03-07T04:06:11;3.10;99.90
15156;DHT22;7678;50.058;8.306;2023-03-07T04:08:41;3.10;99.90
15156;DHT22;7678;50.058;8.306;2023-03-07T04:11:10;3.10;99.90
15156;DHT22;7678;50.058;8.306;2023-03-07T04:13:38;3.10;99.90
15156;DHT22;7678;50.058;8.306;2023-03-07T04:16:07;3.10;99.90
15156;DHT22;7678;50.058;8.306;2023-03-07T04:18:35;3.10;99.90
15156;DHT22;7678;50.058;8.306;2023-03-07T04:21:03;3.10;99.90
15156;DHT22;7678;50.058;8.306;2023-03-07T04:23:33;3.10;99.90
15156;DHT22;7678;50.058;8.306;2023-03-07T04:26:03;3.10;99.90
15156;DHT22;7678;50.058;8.306;2023-03-07T04:28:37;3.20;99.90
15156;DHT22;7678;50.058;8.306;2023-03-07T04:31:10;3.10;99.90
15156;DHT22;7678;50.058;8.306;2023-03-07T04:33:41;3.10;99.90
15156;DHT22;7678;50.058;8.306;2023-03-07T04:36:10;3.10;99.90
15156;DHT22;7678;50.058;8.306;2023-03-07T04:38:39;3.10;99.90
15156;DHT22;7678;50.058;8.306;2023-03-07T04:41:11;3.10;99.90
15156;DHT22;7678;50.058;8.306;2023-03-07T04:43:40;3.10;99.90
15156;DHT22;7678;50.058;8.306;2023-03-07T04:46:08;3.10;99.90
15156;DHT22;7678;50.058;8.306;2023-03-07T04:48:37;3.10;99.90
15156;DHT22;7678;50.058;8.306;2023-03-07T04:51:05;3.10;99.90
15156;DHT22;7678;50.058;8.306;2023-03-07T04:53:33;3.10;99.90
15156;DHT22;7678;50.058;8.306;2023-03-07T04:56:05;3.10;99.90
15156;DHT22;7678;50.058;8.306;2023-03-07T04:58:34;3.10;99.90
15156;DHT22;7678;50.058;8.306;2023-03-07T05:01:04;3.10;99.90
15156;DHT22;7678;50.058;8.306;2023-03-07T05:03:32;3.10;99.90
15156;DHT22;7678;50.058;8.306;2023-03-07T05:06:02;3.10;99.90
15156;DHT22;7678;50.058;8.306;2023-03-07T05:08:30;3.20;99.90
15156;DHT22;7678;50.058;8.306;2023-03-07T05:10:59;3.20;99.90
15156;DHT22;7678;50.058;8.306;2023-03-07T05:13:28;3.10;99.90
15156;DHT22;7678;50.058;8.306;2023-03-07T05:15:57;3.20;99.90
15156;DHT22;7678;50.058;8.306;2023-03-07T05:18:27;3.20;99.90
15156;DHT22;7678;50.058;8.306;2023-03-07T05:20:55;3.20;99.90
15156;DHT22;7678;50.058;8.306;2023-03-07T05:23:23;3.10;99.90
15156;DHT22;7678;50.058;8.306;2023-03-07T05:25:51;3.10;99.90
15156;DHT22;7678;50.058;8.306;2023-03-07T05:28:19;3.20;99.90
15156;DHT22;7678;50.058;8.306;2023-03-07T05:30:49;3.20;99.90
15156;DHT22;7678;50.058;8.306;2023-03-07T05:33:17;3.10;99.90
15156;DHT22;7678;50.058;8.306;2023-03-07T05:35:45;3.10;99.90
15156;DHT22;7678;50.058;8.306;2023-03-07T05:38:14;3.10;99.90
15156;DHT22;7678;50.058;8.306;2023-03-07T05:40:42;3.10;99.90
15156;DHT22;7678;50.058;8.306;2023-03-07T05:43:10;3.00;99.90
15156;DHT22;7678;50.058;8.306;2023-03-07T05:45:38;3.10;99.90
15156;DHT22;7678;50.058;8.306;2023-03-07T05:48:07;3.10;99.90
15156;DHT22;7678;50.058;8.306;2023-03-07T05:50:36;3.10;99.90
15156;DHT22;7678;50.058;8.306;2023-03-07T05:53:06;3.10;99.90
15156;DHT22;7678;50.058;8.306;2023-03-07T05:55:35;3.10;99.90
15156;DHT22;7678;50.058;8.306;2023-03-07T05:58:05;3.10;99.90
15156;DHT22;7678;50.058;8.306;2023-03-07T06:00:35;3.10;99.90
15156;DHT22;7678;50.058;8.306;2023-03-07T06:03:04;3.10;99.90
15156;DHT22;7678;50.058;8.306;2023-03-07T06:05:33;3.10;99.90
15156;DHT22;7678;50.058;8.306;2023-03-07T06:08:01;3.10;99.90
15156;DHT22;7678;50.058;8.306;2023-03-07T06:10:30;3.20;99.90
15156;DHT22;7678;50.058;8.306;2023-03-07T06:12:59;3.20;99.90
15156;DHT22;7678;50.058;8.306;2023-03-07T06:15:27;3.20;99.90
15156;DHT22;7678;50.058;8.306;2023-03-07T06:17:55;3.20;99.90
15156;DHT22;7678;50.058;8.306;2023-03-07T06:20:23;3.20;99.90
15156;DHT22;7678;50.058;8.306;2023-03-07T06:22:52;3.20;99.90
15156;DHT22;7678;50.058;8.306;2023-03-07T06:25:20;3.20;99.90
15156;DHT22;7678;50.058;8.306;2023-03-07T06:27:48;3.30;99.90
15156;DHT22;7678;50.058;8.306;2023-03-07T06:30:17;3.20;99.90
15156;DHT22;7678;50.058;8.306;2023-03-07T06:32:45;3.30;99.90
15156;DHT22;7678;50.058;8.306;2023-03-07T06:35:13;3.30;99.90
15156;DHT22;7678;50.058;8.306;2023-03-07T06:37:41;3.30;99.90
15156;DHT22;7678;50.058;8.306;2023-03-07T06:40:11;3.40;99.90
15156;DHT22;7678;50.058;8.306;2023-03-07T06:42:39;3.30;99.90
15156;DHT22;7678;50.058;8.306;2023-03-07T06:45:07;3.40;99.90
15156;DHT22;7678;50.058;8.306;2023-03-07T06:47:36;3.40;99.90
15156;DHT22;7678;50.058;8.306;2023-03-07T06:50:04;3.40;99.90
15156;DHT22;7678;50.058;8.306;2023-03-07T06:52:33;3.40;99.90
15156;DHT22;7678;50.058;8.306;2023-03-07T06:55:01;3.40;99.90
15156;DHT22;7678;50.058;8.306;2023-03-07T06:57:30;3.50;99.90
15156;DHT22;7678;50.058;8.306;2023-03-07T07:00:00;3.50;99.90
15156;DHT22;7678;50.058;8.306;2023-03-07T07:02:28;3.50;99.90
15156;DHT22;7678;50.058;8.306;2023-03-07T07:04:56;3.50;99.90
15156;DHT22;7678;50.058;8.306;2023-03-07T07:07:26;3.60;99.90
15156;DHT22;7678;50.058;8.306;2023-03-07T07:09:55;3.60;99.90
15156;DHT22;7678;50.058;8.306;2023-03-07T07:12:23;3.70;99.90
15156;DHT22;7678;50.058;8.306;2023-03-07T07:14:52;3.70;99.90
15156;DHT22;7678;50.058;8.306;2023-03-07T07:17:20;3.70;99.90
15156;DHT22;7678;50.058;8.306;2023-03-07T07:19:48;3.70;99.90
15156;DHT22;7678;50.058;8.306;2023-03-07T07:22:16;3.80;99.90
15156;DHT22;7678;50.058;8.306;2023-03-07T07:24:45;3.80;99.90
15156;DHT22;7678;50.058;8.306;2023-03-07T07:27:13;3.80;99.90
15156;DHT22;7678;50.058;8.306;2023-03-07T07:29:41;3.90;99.90
15156;DHT22;7678;50.058;8.306;2023-03-07T07:32:10;3.90;99.90
15156;DHT22;7678;50.058;8.306;2023-03-07T07:34:38;3.90;99.90
15156;DHT22;7678;50.058;8.306;2023-03-07T07:37:07;3.90;99.90
15156;DHT22;7678;50.058;8.306;2023-03-07T07:39:35;3.90;99.90
15156;DHT22;7678;50.058;8.306;2023-03-07T07:42:06;4.00;99.90
15156;DHT22;7678;50.058;8.306;2023-03-07T07:44:34;4.00;99.90
15156;DHT22;7678;50.058;8.306;2023-03-07T07:47:03;4.10;99.90
15156;DHT22;7678;50.058;8.306;2023-03-07T07:49:32;4.10;99.90
15156;DHT22;7678;50.058;8.306;2023-03-07T07:52:01;4.10;99.90
15156;DHT22;7678;50.058;8.306;2023-03-07T07:54:29;4.20;99.90
15156;DHT22;7678;50.058;8.306;2023-03-07T07:56:57;4.20;99.90
15156;DHT22;7678;50.058;8.306;2023-03-07T07:59:25;4.40;99.90
15156;DHT22;7678;50.058;8.306;2023-03-07T08:01:54;4.40;99.90
15156;DHT22;7678;50.058;8.306;2023-03-07T08:04:22;4.50;99.90
15156;DHT22;7678;50.058;8.306;2023-03-07T08:06:51;4.50;99.90
15156;DHT22;7678;50.058;8.306;2023-03-07T08:09:19;4.60;99.90
15156;DHT22;7678;50.058;8.306;2023-03-07T08:11:47;4.70;99.90
15156;DHT22;7678;50.058;8.306;2023-03-07T08:14:16;4.80;99.90
15156;DHT22;7678;50.058;8.306;2023-03-07T08:16:44;4.80;99.90
15156;DHT22;7678;50.058;8.306;2023-03-07T08:19:12;4.90;99.90
15156;DHT22;7678;50.058;8.306;2023-03-07T08:21:40;4.90;99.90
15156;DHT22;7678;50.058;8.306;2023-03-07T08:24:09;4.90;99.90
15156;DHT22;7678;50.058;8.306;2023-03-07T08:26:38;5.00;99.90
15156;DHT22;7678;50.058;8.306;2023-03-07T08:29:06;4.90;99.90
15156;DHT22;7678;50.058;8.306;2023-03-07T08:31:34;5.10;99.90
15156;DHT22;7678;50.058;8.306;2023-03-07T08:34:02;5.20;99.90
15156;DHT22;7678;50.058;8.306;2023-03-07T08:36:30;5.30;99.90
15156;DHT22;7678;50.058;8.306;2023-03-07T08:38:58;5.40;99.90
15156;DHT22;7678;50.058;8.306;2023-03-07T08:41:27;5.50;99.90
15156;DHT22;7678;50.058;8.306;2023-03-07T08:43:55;5.30;99.90
15156;DHT22;7678;50.058;8.306;2023-03-07T08:46:23;5.40;99.90
15156;DHT22;7678;50.058;8.306;2023-03-07T08:48:52;5.50;99.90
15156;DHT22;7678;50.058;8.306;2023-03-07T08:51:20;5.70;99.90
15156;DHT22;7678;50.058;8.306;2023-03-07T08:53:48;5.70;99.90
15156;DHT22;7678;50.058;8.306;2023-03-07T08:56:18;5.70;99.90
15156;DHT22;7678;50.058;8.306;2023-03-07T08:58:51;5.70;99.90
15156;DHT22;7678;50.058;8.306;2023-03-07T09:01:19;5.70;99.90
15156;DHT22;7678;50.058;8.306;2023-03-07T09:03:47;5.50;99.90
15156;DHT22;7678;50.058;8.306;2023-03-07T09:06:16;5.60;99.90
15156;DHT22;7678;50.058;8.306;2023-03-07T09:08:49;5.80;99.90
15156;DHT22;7678;50.058;8.306;2023-03-07T09:11:17;5.70;99.90
15156;DHT22;7678;50.058;8.306;2023-03-07T09:13:48;5.90;99.90
15156;DHT22;7678;50.058;8.306;2023-03-07T09:16:19;5.90;99.90
15156;DHT22;7678;50.058;8.306;2023-03-07T09:18:47;5.90;99.90
15156;DHT22;7678;50.058;8.306;2023-03-07T09:21:15;5.90;99.90
15156;DHT22;7678;50.058;8.306;2023-03-07T09:23:44;6.10;99.90
15156;DHT22;7678;50.058;8.306;2023-03-07T09:26:13;6.00;99.90
15156;DHT22;7678;50.058;8.306;2023-03-07T09:28:41;6.00;99.90
15156;DHT22;7678;50.058;8.306;2023-03-07T09:31:12;6.00;99.90
15156;DHT22;7678;50.058;8.306;2023-03-07T09:33:44;6.10;99.90
15156;DHT22;7678;50.058;8.306;2023-03-07T09:36:16;6.20;99.90
15156;DHT22;7678;50.058;8.306;2023-03-07T09:38:46;6.30;99.90
15156;DHT22;7678;50.058;8.306;2023-03-07T09:41:30;6.20;99.90
15156;DHT22;7678;50.058;8.306;2023-03-07T09:44:06;6.20;99.90
15156;DHT22;7678;50.058;8.306;2023-03-07T09:46:47;6.30;99.90
15156;DHT22;7678;50.058;8.306;2023-03-07T09:49:17;6.40;99.90
15156;DHT22;7678;50.058;8.306;2023-03-07T09:51:48;6.30;99.90
15156;DHT22;7678;50.058;8.306;2023-03-07T09:54:19;6.40;99.90
15156;DHT22;7678;50.058;8.306;2023-03-07T09:56:50;6.60;99.90
15156;DHT22;7678;50.058;8.306;2023-03-07T09:59:21;6.70;99.90
15156;DHT22;7678;50.058;8.306;2023-03-07T10:01:59;6.50;99.90
15156;DHT22;7678;50.058;8.306;2023-03-07T10:04:36;6.60;99.90
15156;DHT22;7678;50.058;8.306;2023-03-07T10:07:08;6.50;99.90
15156;DHT22;7678;50.058;8.306;2023-03-07T10:09:38;6.70;99.90
15156;DHT22;7678;50.058;8.306;2023-03-07T10:12:16;6.60;99.50
15156;DHT22;7678;50.058;8.306;2023-03-07T10:14:59;7.00;99.70
15156;DHT22;7678;50.058;8.306;2023-03-07T10:17:51;7.20;98.10
15156;DHT22;7678;50.058;8.306;2023-03-07T10:20:25;7.00;95.30
15156;DHT22;7678;50.058;8.306;2023-03-07T10:23:07;7.00;95.70
15156;DHT22;7678;50.058;8.306;2023-03-07T10:25:43;6.90;94.40
15156;DHT22;7678;50.058;8.306;2023-03-07T10:28:19;7.00;93.90
15156;DHT22;7678;50.058;8.306;2023-03-07T10:30:50;7.00;92.80
15156;DHT22;7678;50.058;8.306;2023-03-07T10:33:20;7.10;92.20
15156;DHT22;7678;50.058;8.306;2023-03-07T10:35:51;7.30;91.90
15156;DHT22;7678;50.058;8.306;2023-03-07T10:38:27;7.50;90.60
15156;DHT22;7678;50.058;8.306;2023-03-07T10:40:58;7.70;87.00
15156;DHT22;7678;50.058;8.306;2023-03-07T10:43:29;7.80;86.50
15156;DHT22;7678;50.058;8.306;2023-03-07T10:46:01;7.90;82.40
15156;DHT22;7678;50.058;8.306;2023-03-07T10:48:53;7.90;81.00
15156;DHT22;7678;50.058;8.306;2023-03-07T10:51:35;7.80;84.40
15156;DHT22;7678;50.058;8.306;2023-03-07T10:54:09;8.00;80.40
15156;DHT22;7678;50.058;8.306;2023-03-07T10:59:51;7.60;77.50
15156;DHT22;7678;50.058;8.306;2023-03-07T11:02:29;7.80;81.10
15156;DHT22;7678;50.058;8.306;2023-03-07T11:04:59;7.80;76.60
15156;DHT22;7678;50.058;8.306;2023-03-07T11:07:29;7.90;75.70
15156;DHT22;7678;50.058;8.306;2023-03-07T11:09:59;7.90;73.90
15156;DHT22;7678;50.058;8.306;2023-03-07T11:12:28;7.80;72.10
15156;DHT22;7678;50.058;8.306;2023-03-07T11:15:10;7.90;73.10
15156;DHT22;7678;50.058;8.306;2023-03-07T11:17:41;7.90;73.10
15156;DHT22;7678;50.058;8.306;2023-03-07T11:20:20;7.80;72.40
15156;DHT22;7678;50.058;8.306;2023-03-07T11:22:49;7.90;73.30
15156;DHT22;7678;50.058;8.306;2023-03-07T11:25:19;7.90;70.60
15156;DHT22;7678;50.058;8.306;2023-03-07T11:27:51;8.00;70.40
15156;DHT22;7678;50.058;8.306;2023-03-07T11:30:22;8.10;70.00
15156;DHT22;7678;50.058;8.306;2023-03-07T11:33:00;8.00;68.60
15156;DHT22;7678;50.058;8.306;2023-03-07T11:38:34;8.20;69.00
15156;DHT22;7678;50.058;8.306;2023-03-07T11:41:07;8.40;69.10
15156;DHT22;7678;50.058;8.306;2023-03-07T11:44:07;8.10;66.90
15156;DHT22;7678;50.058;8.306;2023-03-07T11:46:47;8.20;66.50
15156;DHT22;7678;50.058;8.306;2023-03-07T11:49:29;8.30;66.40
15156;DHT22;7678;50.058;8.306;2023-03-07T11:52:15;8.40;65.00
15156;DHT22;7678;50.058;8.306;2023-03-07T11:54:50;8.30;64.10
15156;DHT22;7678;50.058;8.306;2023-03-07T11:57:36;8.30;64.80
15156;DHT22;7678;50.058;8.306;2023-03-07T12:00:26;8.20;66.40
15156;DHT22;7678;50.058;8.306;2023-03-07T12:03:14;8.00;66.20
15156;DHT22;7678;50.058;8.306;2023-03-07T12:05:55;8.00;67.70
15156;DHT22;7678;50.058;8.306;2023-03-07T12:08:36;8.00;68.00
15156;DHT22;7678;50.058;8.306;2023-03-07T12:11:19;8.20;69.00
15156;DHT22;7678;50.058;8.306;2023-03-07T12:13:55;8.30;67.80
15156;DHT22;7678;50.058;8.306;2023-03-07T12:16:39;8.40;68.10
15156;DHT22;7678;50.058;8.306;2023-03-07T12:19:28;8.20;67.10
15156;DHT22;7678;50.058;8.306;2023-03-07T12:22:21;8.20;66.50
15156;DHT22;7678;50.058;8.306;2023-03-07T12:25:13;8.10;67.90
15156;DHT22;7678;50.058;8.306;2023-03-07T12:27:50;8.10;68.40
15156;DHT22;7678;50.058;8.306;2023-03-07T12:30:24;8.10;68.30
15156;DHT22;7678;50.058;8.306;2023-03-07T12:32:54;7.90;68.80
15156;DHT22;7678;50.058;8.306;2023-03-07T12:35:24;7.80;69.40
15156;DHT22;7678;50.058;8.306;2023-03-07T12:37:57;7.80;68.50
15156;DHT22;7678;50.058;8.306;2023-03-07T12:40:35;7.70;68.80
15156;DHT22;7678;50.058;8.306;2023-03-07T12:43:12;7.60;70.60
15156;DHT22;7678;50.058;8.306;2023-03-07T12:45:47;7.70;70.30
15156;DHT22;7678;50.058;8.306;2023-03-07T12:48:21;7.60;72.40
15156;DHT22;7678;50.058;8.306;2023-03-07T12:50:56;7.70;72.60
15156;DHT22;7678;50.058;8.306;2023-03-07T12:53:32;7.80;72.50
15156;DHT22;7678;50.058;8.306;2023-03-07T12:56:06;7.70;72.20
15156;DHT22;7678;50.058;8.306;2023-03-07T12:58:40;7.50;72.20
15156;DHT22;7678;50.058;8.306;2023-03-07T13:01:13;7.50;73.40
15156;DHT22;7678;50.058;8.306;2023-03-07T13:03:49;7.50;73.90
15156;DHT22;7678;50.058;8.306;2023-03-07T13:06:20;7.40;74.40
15156;DHT22;7678;50.058;8.306;2023-03-07T13:08:51;7.40;75.80
15156;DHT22;7678;50.058;8.306;2023-03-07T13:11:22;7.40;77.60
15156;DHT22;7678;50.058;8.306;2023-03-07T13:13:53;7.40;78.40
15156;DHT22;7678;50.058;8.306;2023-03-07T13:16:42;7.40;79.40
15156;DHT22;7678;50.058;8.306;2023-03-07T13:19:49;7.20;81.50
15156;DHT22;7678;50.058;8.306;2023-03-07T13:22:56;7.20;83.90
15156;DHT22;7678;50.058;8.306;2023-03-07T13:25:53;7.10;85.60
15156;DHT22;7678;50.058;8.306;2023-03-07T13:28:41;7.20;87.90
15156;DHT22;7678;50.058;8.306;2023-03-07T13:31:37;7.30;87.70
15156;DHT22;7678;50.058;8.306;2023-03-07T13:37:50;7.40;87.60
15156;DHT22;7678;50.058;8.306;2023-03-07T13:40:52;7.30;88.70
15156;DHT22;7678;50.058;8.306;2023-03-07T13:43:55;7.20;90.30
15156;DHT22;7678;50.058;8.306;2023-03-07T13:46:50;7.20;90.90
15156;DHT22;7678;50.058;8.306;2023-03-07T13:49:52;7.10;92.30
15156;DHT22;7678;50.058;8.306;2023-03-07T13:52:43;7.20;92.00
15156;DHT22;7678;50.058;8.306;2023-03-07T13:55:22;7.50;92.00
15156;DHT22;7678;50.058;8.306;2023-03-07T13:57:54;7.40;91.00
15156;DHT22;7678;50.058;8.306;2023-03-07T14:00:49;7.70;91.20
15156;DHT22;7678;50.058;8.306;2023-03-07T14:03:28;7.80;89.00
15156;DHT22;7678;50.058;8.306;2023-03-07T14:06:00;7.80;90.40
15156;DHT22;7678;50.058;8.306;2023-03-07T14:08:32;7.90;91.00
15156;DHT22;7678;50.058;8.306;2023-03-07T14:11:01;7.70;90.40
15156;DHT22;7678;50.058;8.306;2023-03-07T14:13:45;7.60;92.70
15156;DHT22;7678;50.058;8.306;2023-03-07T14:16:29;7.50;93.50
15156;DHT22;7678;50.058;8.306;2023-03-07T14:19:08;7.40;93.80
15156;DHT22;7678;50.058;8.306;2023-03-07T14:21:50;7.40;93.10
15156;DHT22;7678;50.058;8.306;2023-03-07T14:24:38;7.40;93.70
15156;DHT22;7678;50.058;8.306;2023-03-07T14:27:11;7.40;94.10
15156;DHT22;7678;50.058;8.306;2023-03-07T14:29:47;7.50;94.10
15156;DHT22;7678;50.058;8.306;2023-03-07T14:32:23;7.40;94.00
15156;DHT22;7678;50.058;8.306;2023-03-07T14:34:51;7.40;95.40
15156;DHT22;7678;50.058;8.306;2023-03-07T14:37:22;7.60;94.70
15156;DHT22;7678;50.058;8.306;2023-03-07T14:40:13;7.60;94.80
15156;DHT22;7678;50.058;8.306;2023-03-07T14:42:51;7.60;94.00
15156;DHT22;7678;50.058;8.306;2023-03-07T14:45:29;7.80;93.80
15156;DHT22;7678;50.058;8.306;2023-03-07T14:48:23;7.60;94.10
15156;DHT22;7678;50.058;8.306;2023-03-07T14:50:59;7.60;94.40
15156;DHT22;7678;50.058;8.306;2023-03-07T14:53:30;7.60;95.10
15156;DHT22;7678;50.058;8.306;2023-03-07T14:56:00;7.60;95.30
15156;DHT22;7678;50.058;8.306;2023-03-07T14:58:35;7.60;95.50
15156;DHT22;7678;50.058;8.306;2023-03-07T15:01:05;7.80;95.70
15156;DHT22;7678;50.058;8.306;2023-03-07T15:03:45;7.90;95.10
15156;DHT22;7678;50.058;8.306;2023-03-07T15:06:16;7.70;94.70
15156;DHT22;7678;50.058;8.306;2023-03-07T15:08:46;7.80;94.70
15156;DHT22;7678;50.058;8.306;2023-03-07T15:11:23;7.80;94.10
15156;DHT22;7678;50.058;8.306;2023-03-07T15:13:56;7.50;93.40
15156;DHT22;7678;50.058;8.306;2023-03-07T15:16:28;7.60;93.70
15156;DHT22;7678;50.058;8.306;2023-03-07T15:19:01;7.60;92.40
15156;DHT22;7678;50.058;8.306;2023-03-07T15:21:37;7.60;93.00
15156;DHT22;7678;50.058;8.306;2023-03-07T15:24:15;7.40;94.20
15156;DHT22;7678;50.058;8.306;2023-03-07T15:26:48;7.40;95.30
15156;DHT22;7678;50.058;8.306;2023-03-07T15:29:19;7.40;94.70
15156;DHT22;7678;50.058;8.306;2023-03-07T15:31:51;7.30;94.20
15156;DHT22;7678;50.058;8.306;2023-03-07T15:34:33;7.30;95.30
15156;DHT22;7678;50.058;8.306;2023-03-07T15:37:21;7.40;95.10
15156;DHT22;7678;50.058;8.306;2023-03-07T15:40:00;7.20;93.90
15156;DHT22;7678;50.058;8.306;2023-03-07T15:42:28;7.20;94.80
15156;DHT22;7678;50.058;8.306;2023-03-07T15:44:58;7.20;95.10
15156;DHT22;7678;50.058;8.306;2023-03-07T15:47:35;7.10;95.80
15156;DHT22;7678;50.058;8.306;2023-03-07T15:50:18;7.10;96.50
15156;DHT22;7678;50.058;8.306;2023-03-07T15:52:51;7.10;96.50
15156;DHT22;7678;50.058;8.306;2023-03-07T15:55:24;7.00;97.30
15156;DHT22;7678;50.058;8.306;2023-03-07T15:57:54;7.10;97.90
15156;DHT22;7678;50.058;8.306;2023-03-07T16:00:28;6.90;96.70
15156;DHT22;7678;50.058;8.306;2023-03-07T16:03:23;7.00;97.20
15156;DHT22;7678;50.058;8.306;2023-03-07T16:05:54;6.80;97.10
15156;DHT22;7678;50.058;8.306;2023-03-07T16:08:23;6.80;97.50
15156;DHT22;7678;50.058;8.306;2023-03-07T16:10:54;6.80;97.70
15156;DHT22;7678;50.058;8.306;2023-03-07T16:13:26;6.80;97.90
15156;DHT22;7678;50.058;8.306;2023-03-07T16:15:58;6.80;97.20
15156;DHT22;7678;50.058;8.306;2023-03-07T16:18:28;6.70;97.20
15156;DHT22;7678;50.058;8.306;2023-03-07T16:20:59;6.70;97.20
15156;DHT22;7678;50.058;8.306;2023-03-07T16:23:27;6.70;97.10
15156;DHT22;7678;50.058;8.306;2023-03-07T16:25:58;6.70;97.50
15156;DHT22;7678;50.058;8.306;2023-03-07T16:28:28;6.70;97.50
15156;DHT22;7678;50.058;8.306;2023-03-07T16:30:57;6.70;97.10
15156;DHT22;7678;50.058;8.306;2023-03-07T16:33:26;6.70;98.50
15156;DHT22;7678;50.058;8.306;2023-03-07T16:35:53;6.70;97.60
15156;DHT22;7678;50.058;8.306;2023-03-07T16:38:23;6.70;97.50
15156;DHT22;7678;50.058;8.306;2023-03-07T16:40:51;6.70;98.30
15156;DHT22;7678;50.058;8.306;2023-03-07T16:43:32;6.70;98.40
15156;DHT22;7678;50.058;8.306;2023-03-07T16:46:03;6.70;98.30